Time;durP1;ratioP1;P1;durP2;ratioP2;P2;SDS_P1;SDS_P2;PMS_P1;PMS_P2;Temp;Humidity;BMP_temperature;BMP_pressure;BME280_temperature;BME280_humidity;BME280_pressure;Samples;Min_cycle;Max_cycle;Signal;HPM_P1;HPM_P2
2021/06/01 00:01:45;;;;;;;0.40;0.20;;;15.30;69.90;;;;;;5020841;28;20388;-74
2021/06/01 00:04:12;;;;;;;0.40;0.20;;;15.30;70.50;;;;;;5030837;28;20869;-74
2021/06/01 00:06:38;;;;;;;0.40;0.30;;;15.30;71.70;;;;;;5030495;28;20387;-74
2021/06/01 00:09:08;;;;;;;0.40;0.20;;;15.30;70.40;;;;;;5031006;28;20441;-74
2021/06/01 00:11:34;;;;;;;0.40;0.20;;;15.30;70.50;;;;;;5030209;28;20896;-73
2021/06/01 00:14:00;;;;;;;0.40;0.20;;;15.40;69.60;;;;;;5030892;28;20397;-74
2021/06/01 00:16:27;;;;;;;0.40;0.30;;;15.30;70.00;;;;;;5031009;28;20458;-74
2021/06/01 00:18:53;;;;;;;0.40;0.22;;;15.40;70.20;;;;;;5030400;28;20387;-73
2021/06/01 00:21:19;;;;;;;0.40;0.20;;;15.40;69.50;;;;;;5030733;28;20387;-73
2021/06/01 00:23:47;;;;;;;0.40;0.20;;;15.30;70.40;;;;;;5030351;28;20469;-73
2021/06/01 00:26:15;;;;;;;0.40;0.20;;;15.30;68.40;;;;;;5030692;28;20383;-74
2021/06/01 00:28:41;;;;;;;0.40;0.20;;;15.30;69.70;;;;;;5030516;28;20409;-74
2021/06/01 00:31:07;;;;;;;0.40;0.20;;;15.40;67.10;;;;;;5030953;28;20375;-74
2021/06/01 00:33:33;;;;;;;0.40;0.20;;;15.50;69.10;;;;;;5030333;28;20381;-74
2021/06/01 00:35:59;;;;;;;0.40;0.20;;;15.50;68.00;;;;;;5030730;28;20933;-74
2021/06/01 00:38:25;;;;;;;0.40;0.20;;;15.40;69.90;;;;;;5030892;28;20722;-72
2021/06/01 00:40:52;;;;;;;0.40;0.20;;;15.30;68.20;;;;;;5012237;28;20387;-73
2021/06/01 00:43:17;;;;;;;0.40;0.20;;;15.30;69.30;;;;;;5030433;28;20394;-73
2021/06/01 00:45:43;;;;;;;0.40;0.20;;;15.10;70.90;;;;;;5030093;28;20386;-73
2021/06/01 00:48:09;;;;;;;0.40;0.20;;;15.00;69.40;;;;;;5013175;28;20862;-73
2021/06/01 00:50:35;;;;;;;0.40;0.20;;;14.90;69.80;;;;;;5029834;28;20390;-74
2021/06/01 00:53:01;;;;;;;0.40;0.20;;;14.80;70.40;;;;;;5030844;28;20492;-73
2021/06/01 00:55:28;;;;;;;0.40;0.20;;;14.90;71.00;;;;;;5030445;28;20849;-73
2021/06/01 00:57:54;;;;;;;0.40;0.20;;;14.80;71.30;;;;;;5030111;28;20383;-73
2021/06/01 01:03:07;;;;;;;0.40;0.20;;;14.70;72.20;;;;;;5014588;28;20388;-74
2021/06/01 01:05:37;;;;;;;0.40;0.20;;;14.60;73.60;;;;;;5012792;28;20889;-77
2021/06/01 01:11:23;;;;;;;0.40;0.20;;;14.50;71.30;;;;;;5013795;28;20377;-75
2021/06/01 01:13:57;;;;;;;0.40;0.20;;;14.50;72.60;;;;;;4996040;28;20401;-74
2021/06/01 01:16:26;;;;;;;0.40;0.20;;;14.40;72.80;;;;;;5014168;28;20411;-73
2021/06/01 01:19:10;;;;;;;0.40;0.20;;;14.40;73.00;;;;;;5013720;28;20676;-74
2021/06/01 01:21:45;;;;;;;0.40;0.20;;;14.40;71.80;;;;;;5013693;28;20491;-74
2021/06/01 01:24:25;;;;;;;0.40;0.20;;;14.40;72.90;;;;;;5014250;28;20380;-74
2021/06/01 01:27:05;;;;;;;0.40;0.20;;;14.30;72.40;;;;;;4995928;28;20727;-73
2021/06/01 01:29:47;;;;;;;0.40;0.20;;;14.30;73.00;;;;;;5014036;28;20415;-73
2021/06/01 01:32:19;;;;;;;0.40;0.30;;;14.30;73.10;;;;;;5014044;28;20396;-73
2021/06/01 01:34:46;;;;;;;0.40;0.20;;;14.30;73.50;;;;;;5012930;28;20412;-73
2021/06/01 01:37:12;;;;;;;0.40;0.30;;;14.20;73.30;;;;;;5013860;28;20385;-73
2021/06/01 01:39:45;;;;;;;0.40;0.20;;;14.10;72.90;;;;;;5013159;28;20721;-74
2021/06/01 01:42:12;;;;;;;0.40;0.20;;;14.10;73.70;;;;;;5013981;28;20396;-73
2021/06/01 01:44:48;;;;;;;0.40;0.30;;;14.10;72.60;;;;;;5013013;28;20393;-73
2021/06/01 01:50:01;;;;;;;0.40;0.20;;;13.90;74.10;;;;;;5012982;28;20744;-73
2021/06/01 01:52:27;;;;;;;0.40;0.20;;;13.80;76.80;;;;;;5013171;28;20401;-73
2021/06/01 01:54:54;;;;;;;0.40;0.30;;;13.80;75.70;;;;;;5012713;28;20519;-73
2021/06/01 01:57:20;;;;;;;0.40;0.20;;;13.70;77.70;;;;;;5013496;28;20805;-73
2021/06/01 01:59:47;;;;;;;0.40;0.20;;;13.70;79.20;;;;;;5012801;28;20373;-73
2021/06/01 02:02:14;;;;;;;0.40;0.23;;;13.60;77.90;;;;;;5013311;28;20384;-73
2021/06/01 02:04:41;;;;;;;0.40;0.20;;;13.50;77.60;;;;;;5012724;28;20458;-73
2021/06/01 02:07:07;;;;;;;0.40;0.20;;;13.50;79.00;;;;;;5012950;28;20392;-73
2021/06/01 02:09:33;;;;;;;0.40;0.30;;;13.40;77.40;;;;;;5012009;28;20377;-73
2021/06/01 02:11:58;;;;;;;0.40;0.22;;;13.30;80.60;;;;;;5012264;28;20435;-73
2021/06/01 02:14:24;;;;;;;0.40;0.20;;;13.40;82.80;;;;;;5011798;28;20833;-73
2021/06/01 02:16:51;;;;;;;0.40;0.20;;;13.30;81.10;;;;;;5012591;28;20393;-73
2021/06/01 02:19:19;;;;;;;0.40;0.20;;;13.20;81.10;;;;;;5013069;28;20448;-73
2021/06/01 02:24:28;;;;;;;0.40;0.30;;;13.00;79.80;;;;;;5012884;28;20397;-73
2021/06/01 02:26:57;;;;;;;0.40;0.20;;;13.00;83.00;;;;;;5010901;28;20823;-73
2021/06/01 02:29:51;;;;;;;0.40;0.20;;;12.90;81.40;;;;;;5011771;28;20970;-73
2021/06/01 02:32:19;;;;;;;0.40;0.30;;;12.90;83.80;;;;;;5011500;28;20490;-73
2021/06/01 02:34:46;;;;;;;0.40;0.30;;;13.00;84.00;;;;;;5011784;28;20404;-73
2021/06/01 02:37:12;;;;;;;0.40;0.30;;;12.90;82.00;;;;;;5012621;28;20466;-73
2021/06/01 02:39:39;;;;;;;0.40;0.20;;;12.90;83.00;;;;;;5012827;28;20427;-77
2021/06/01 02:42:07;;;;;;;0.40;0.20;;;12.90;83.80;;;;;;5011141;28;20475;-73
2021/06/01 02:44:34;;;;;;;0.40;0.20;;;12.90;84.70;;;;;;5012307;28;20520;-73
2021/06/01 02:47:00;;;;;;;0.40;0.20;;;12.90;85.40;;;;;;5011665;28;20863;-73
2021/06/01 02:49:27;;;;;;;0.40;0.20;;;12.80;83.90;;;;;;5012698;28;20451;-72
2021/06/01 02:51:55;;;;;;;0.40;0.20;;;12.70;85.20;;;;;;5011679;28;20407;-74
2021/06/01 02:54:22;;;;;;;0.40;0.20;;;12.70;84.70;;;;;;5012113;28;20863;-72
2021/06/01 02:56:51;;;;;;;0.40;0.20;;;12.70;86.80;;;;;;5011971;28;20421;-73
2021/06/01 02:59:18;;;;;;;0.40;0.20;;;12.70;84.60;;;;;;5012445;28;20456;-72
2021/06/01 03:01:47;;;;;;;0.40;0.30;;;12.70;85.20;;;;;;5020055;28;20817;-74
2021/06/01 03:04:13;;;;;;;0.40;0.22;;;12.70;84.20;;;;;;5031693;28;20375;-75
2021/06/01 03:06:43;;;;;;;0.40;0.20;;;12.70;83.00;;;;;;5031944;28;20868;-74
2021/06/01 03:09:08;;;;;;;0.40;0.20;;;12.70;83.20;;;;;;5032055;28;20386;-74
2021/06/01 03:11:35;;;;;;;0.40;0.30;;;12.60;85.30;;;;;;5031766;28;20395;-75
2021/06/01 03:14:00;;;;;;;0.40;0.20;;;12.60;85.00;;;;;;5031374;28;21239;-74
2021/06/01 03:16:26;;;;;;;0.40;0.20;;;12.60;85.40;;;;;;5031504;28;20407;-73
2021/06/01 03:18:51;;;;;;;0.40;0.20;;;12.60;85.10;;;;;;5031155;28;20374;-72
2021/06/01 03:21:17;;;;;;;0.40;0.30;;;12.60;84.20;;;;;;5031571;28;20754;-73
2021/06/01 03:23:46;;;;;;;0.40;0.20;;;12.50;84.70;;;;;;5030337;28;20462;-73
2021/06/01 03:26:12;;;;;;;0.40;0.20;;;12.40;88.90;;;;;;5031375;28;20426;-73
2021/06/01 03:28:38;;;;;;;0.40;0.20;;;12.50;85.60;;;;;;5031311;28;20388;-73
2021/06/01 03:31:06;;;;;;;0.40;0.20;;;12.50;84.50;;;;;;5013083;28;20387;-73
2021/06/01 03:33:32;;;;;;;0.40;0.30;;;12.50;84.90;;;;;;5031522;28;20383;-73
2021/06/01 03:35:58;;;;;;;0.40;0.30;;;12.50;86.40;;;;;;5030719;28;20406;-73
2021/06/01 03:38:24;;;;;;;0.40;0.20;;;12.40;85.30;;;;;;5031343;28;20476;-73
2021/06/01 03:40:50;;;;;;;0.40;0.20;;;12.50;85.70;;;;;;5030720;28;20371;-73
2021/06/01 03:43:16;;;;;;;0.40;0.20;;;12.70;86.80;;;;;;5013177;28;20463;-73
2021/06/01 03:45:42;;;;;;;0.40;0.20;;;12.30;86.50;;;;;;5030884;28;20392;-77
2021/06/01 03:48:08;;;;;;;0.40;0.20;;;12.30;85.90;;;;;;5013711;28;20725;-73
2021/06/01 03:50:34;;;;;;;0.40;0.20;;;12.20;87.30;;;;;;5031291;28;20398;-73
2021/06/01 03:53:00;;;;;;;0.40;0.28;;;12.20;89.50;;;;;;5030069;28;20410;-73
2021/06/01 03:55:26;;;;;;;0.40;0.20;;;12.20;88.90;;;;;;5030906;28;20487;-74
2021/06/01 03:57:52;;;;;;;0.40;0.20;;;12.10;89.30;;;;;;5030456;28;20455;-73
2021/06/01 04:00:23;;;;;;;0.40;0.20;;;12.10;90.70;;;;;;5030924;28;20379;-73
2021/06/01 04:02:48;;;;;;;0.40;0.20;;;12.00;91.60;;;;;;5013550;28;20448;-74
2021/06/01 04:05:14;;;;;;;0.40;0.20;;;12.10;91.70;;;;;;5011700;28;20471;-73
2021/06/01 04:07:40;;;;;;;0.40;0.20;;;12.20;90.40;;;;;;4993901;28;20392;-73
2021/06/01 04:10:06;;;;;;;0.40;0.20;;;12.10;90.70;;;;;;5010979;28;20377;-73
2021/06/01 04:12:33;;;;;;;0.40;0.30;;;12.00;90.40;;;;;;5011464;28;20487;-73
2021/06/01 04:15:00;;;;;;;0.40;0.20;;;11.90;90.80;;;;;;5010702;28;20420;-74
2021/06/01 04:17:26;;;;;;;0.40;0.20;;;11.90;90.80;;;;;;5011521;28;20464;-74
2021/06/01 04:19:52;;;;;;;0.40;0.20;;;11.90;91.80;;;;;;5010920;28;20471;-74
2021/06/01 04:22:17;;;;;;;0.40;0.20;;;11.80;91.30;;;;;;5011405;28;20432;-74
2021/06/01 04:24:43;;;;;;;0.40;0.20;;;11.90;91.30;;;;;;5011133;28;20990;-74
2021/06/01 04:27:09;;;;;;;0.40;0.20;;;11.90;91.20;;;;;;5010443;28;20389;-73
2021/06/01 04:29:34;;;;;;;0.40;0.22;;;12.00;90.70;;;;;;5011420;28;20436;-72
2021/06/01 04:32:00;;;;;;;0.40;0.30;;;12.10;91.60;;;;;;4993130;28;20428;-73
2021/06/01 04:34:26;;;;;;;0.40;0.30;;;12.10;91.20;;;;;;5011775;28;20385;-73
2021/06/01 04:36:52;;;;;;;0.40;0.20;;;12.10;91.10;;;;;;5014975;28;20431;-73
2021/06/01 04:39:17;;;;;;;0.40;0.20;;;12.20;90.90;;;;;;4997897;28;20800;-73
2021/06/01 04:41:43;;;;;;;0.40;0.20;;;12.20;90.50;;;;;;5014802;28;20483;-73
2021/06/01 04:44:09;;;;;;;0.40;0.20;;;12.20;90.70;;;;;;5014436;28;20385;-73
2021/06/01 04:46:35;;;;;;;0.40;0.20;;;12.40;91.20;;;;;;5014803;28;20875;-73
2021/06/01 04:49:00;;;;;;;0.40;0.20;;;12.40;90.10;;;;;;4997539;28;20821;-73
2021/06/01 04:51:27;;;;;;;0.40;0.30;;;12.30;90.00;;;;;;5031594;28;20553;-73
2021/06/01 04:53:58;;;;;;;0.40;0.20;;;12.30;91.40;;;;;;5032669;28;20375;-74
2021/06/01 04:56:25;;;;;;;0.40;0.20;;;12.40;91.90;;;;;;5033846;28;20413;-73
2021/06/01 04:58:51;;;;;;;0.40;0.20;;;12.40;91.00;;;;;;5033364;28;20678;-73
2021/06/01 05:01:17;;;;;;;0.40;0.20;;;12.40;90.80;;;;;;5026254;28;20411;-73
2021/06/01 05:03:43;;;;;;;0.40;0.30;;;12.60;87.50;;;;;;5014530;28;20454;-73
2021/06/01 05:06:09;;;;;;;0.40;0.30;;;12.70;88.60;;;;;;5013035;28;21504;-74
2021/06/01 05:08:35;;;;;;;0.40;0.20;;;12.70;85.70;;;;;;5012776;28;20998;-75
2021/06/01 05:11:02;;;;;;;0.40;0.20;;;12.80;89.40;;;;;;5011469;28;20398;-74
2021/06/01 05:13:27;;;;;;;0.40;0.20;;;12.80;90.20;;;;;;5009824;28;20486;-74
2021/06/01 05:15:53;;;;;;;0.40;0.20;;;12.90;91.20;;;;;;5007649;28;20475;-74
2021/06/01 05:18:19;;;;;;;0.40;0.20;;;12.90;92.10;;;;;;5012129;28;20395;-75
2021/06/01 05:20:46;;;;;;;0.40;0.20;;;12.90;93.10;;;;;;5008187;28;20956;-75
2021/06/01 05:23:13;;;;;;;0.40;0.20;;;13.30;91.50;;;;;;5010784;28;20385;-74
2021/06/01 05:25:39;;;;;;;0.40;0.20;;;12.90;90.90;;;;;;5008843;28;20482;-75
2021/06/01 05:28:05;;;;;;;0.40;0.20;;;13.00;90.20;;;;;;5010260;28;20868;-75
2021/06/01 05:35:45;;;;;;;0.40;0.30;;;13.20;92.70;;;;;;5010242;28;20435;-73
2021/06/01 05:38:11;;;;;;;0.40;0.20;;;13.20;89.60;;;;;;4993267;28;20730;-75
2021/06/01 05:40:36;;;;;;;0.40;0.20;;;13.30;88.60;;;;;;5011005;28;20391;-73
2021/06/01 05:43:03;;;;;;;0.40;0.30;;;13.30;90.70;;;;;;5011038;28;20408;-73
2021/06/01 05:45:29;;;;;;;0.40;0.20;;;13.30;91.30;;;;;;4995632;28;20911;-73
2021/06/01 05:47:54;;;;;;;0.40;0.30;;;13.40;92.40;;;;;;5010721;28;20381;-75
2021/06/01 05:50:20;;;;;;;0.40;0.30;;;13.50;92.40;;;;;;5012264;28;20383;-74
2021/06/01 05:52:46;;;;;;;0.40;0.20;;;13.60;91.20;;;;;;4981615;28;20953;-74
2021/06/01 05:55:12;;;;;;;0.40;0.20;;;13.60;91.20;;;;;;4982225;28;20437;-75
2021/06/01 05:57:37;;;;;;;0.40;0.20;;;14.10;91.20;;;;;;4981144;28;20394;-75
2021/06/01 06:00:08;;;;;;;0.40;0.20;;;13.80;89.00;;;;;;4980889;28;20402;-77
2021/06/01 06:02:34;;;;;;;0.40;0.20;;;14.00;84.70;;;;;;4981975;28;20727;-75
2021/06/01 06:04:59;;;;;;;0.40;0.20;;;14.10;84.70;;;;;;4978342;28;20411;-72
2021/06/01 06:07:25;;;;;;;0.40;0.20;;;14.20;83.70;;;;;;4975404;28;20472;-76
2021/06/01 06:09:51;;;;;;;0.40;0.20;;;14.30;83.40;;;;;;4980827;28;20398;-76
2021/06/01 06:12:17;;;;;;;0.40;0.20;;;14.40;83.70;;;;;;4976017;28;20462;-75
2021/06/01 06:14:43;;;;;;;0.40;0.20;;;14.50;82.80;;;;;;4981722;28;20431;-76
2021/06/01 06:17:25;;;;;;;0.40;0.30;;;14.60;85.20;;;;;;4978602;28;20903;-74
2021/06/01 06:19:51;;;;;;;0.40;0.20;;;14.70;83.10;;;;;;4981175;28;20387;-77
2021/06/01 06:22:16;;;;;;;0.40;0.30;;;14.80;81.80;;;;;;4980283;28;20500;-75
2021/06/01 06:24:42;;;;;;;0.40;0.30;;;14.90;81.60;;;;;;4980267;28;21119;-75
2021/06/01 06:27:08;;;;;;;0.40;0.20;;;15.20;78.80;;;;;;4974532;28;20403;-73
2021/06/01 06:29:33;;;;;;;0.40;0.30;;;15.30;80.70;;;;;;4979956;28;20500;-73
2021/06/01 06:32:00;;;;;;;0.40;0.20;;;15.30;79.40;;;;;;4981025;28;20954;-75
2021/06/01 06:34:26;;;;;;;0.40;0.20;;;15.30;77.10;;;;;;4981846;28;20389;-75
2021/06/01 06:36:51;;;;;;;0.40;0.20;;;15.30;80.80;;;;;;4978856;28;20932;-78
2021/06/01 06:39:17;;;;;;;0.40;0.30;;;15.40;78.00;;;;;;4980615;28;20418;-75
2021/06/01 06:41:43;;;;;;;0.40;0.30;;;15.40;79.30;;;;;;4980765;28;20486;-75
2021/06/01 06:44:11;;;;;;;0.40;0.20;;;15.40;76.90;;;;;;4977074;28;20406;-74
2021/06/01 06:46:41;;;;;;;0.40;0.20;;;15.50;77.90;;;;;;4976192;28;20622;-74
2021/06/01 06:49:08;;;;;;;0.40;0.20;;;15.60;76.50;;;;;;4979398;28;20729;-76
2021/06/01 06:51:34;;;;;;;0.40;0.30;;;15.70;76.20;;;;;;4989929;28;20412;-77
2021/06/01 06:54:02;;;;;;;0.40;0.30;;;15.90;74.30;;;;;;5007857;28;20397;-75
2021/06/01 06:56:29;;;;;;;0.40;0.20;;;15.90;74.90;;;;;;5004417;28;20592;-75
2021/06/01 06:58:57;;;;;;;0.40;0.20;;;15.90;76.10;;;;;;5006585;28;20434;-74
2021/06/01 07:01:23;;;;;;;0.40;0.30;;;15.90;76.10;;;;;;4997324;28;20759;-74
2021/06/01 07:03:49;;;;;;;0.40;0.20;;;16.20;74.70;;;;;;5008594;28;20397;-76
2021/06/01 07:06:18;;;;;;;0.40;0.20;;;16.30;75.50;;;;;;5005853;28;20410;-75
2021/06/01 07:08:44;;;;;;;0.40;0.20;;;16.30;73.80;;;;;;5005436;28;20387;-76
2021/06/01 07:11:10;;;;;;;0.40;0.20;;;16.30;75.60;;;;;;5004839;28;20387;-74
2021/06/01 07:13:51;;;;;;;0.40;0.20;;;16.30;75.60;;;;;;5007803;28;21023;-75
2021/06/01 07:16:18;;;;;;;0.40;0.30;;;16.20;76.80;;;;;;5007240;28;20433;-74
2021/06/01 07:18:44;;;;;;;0.40;0.20;;;16.20;75.20;;;;;;5009366;28;20767;-74
2021/06/01 07:21:14;;;;;;;0.40;0.20;;;16.30;75.20;;;;;;5008899;28;20383;-74
2021/06/01 07:23:40;;;;;;;0.40;0.20;;;16.40;74.60;;;;;;5009490;28;20404;-74
2021/06/01 07:26:07;;;;;;;0.40;0.20;;;16.60;74.50;;;;;;5008332;28;20387;-74
2021/06/01 07:28:33;;;;;;;0.40;0.20;;;16.70;72.10;;;;;;5010478;28;20577;-77
2021/06/01 07:31:07;;;;;;;0.40;0.30;;;16.60;72.90;;;;;;5009346;28;20908;-74
2021/06/01 07:33:33;;;;;;;0.40;0.30;;;16.60;71.40;;;;;;4993936;28;20406;-73
2021/06/01 07:35:59;;;;;;;0.40;0.30;;;16.80;70.70;;;;;;5007283;28;20453;-74
2021/06/01 07:38:25;;;;;;;0.40;0.20;;;16.90;70.30;;;;;;5009942;28;20482;-79
2021/06/01 07:40:50;;;;;;;0.40;0.20;;;17.10;70.10;;;;;;5010401;28;20403;-76
2021/06/01 07:43:16;;;;;;;0.40;0.30;;;17.00;70.60;;;;;;5007928;28;20419;-74
2021/06/01 07:45:42;;;;;;;0.40;0.20;;;17.00;69.00;;;;;;4992620;28;20415;-78
2021/06/01 07:48:08;;;;;;;0.40;0.30;;;17.00;69.50;;;;;;4989896;28;20414;-75
2021/06/01 07:50:33;;;;;;;0.40;0.30;;;16.90;68.60;;;;;;5010191;28;20397;-77
2021/06/01 07:52:59;;;;;;;0.40;0.20;;;17.00;68.70;;;;;;5008530;28;20809;-75
2021/06/01 07:55:25;;;;;;;0.40;0.20;;;17.20;68.60;;;;;;5008007;28;20777;-78
2021/06/01 07:57:50;;;;;;;0.40;0.20;;;17.20;68.10;;;;;;5009410;28;20425;-79
2021/06/01 08:00:17;;;;;;;0.40;0.30;;;17.40;68.50;;;;;;5008683;28;20386;-76
2021/06/01 08:02:42;;;;;;;0.40;0.20;;;17.50;67.40;;;;;;5010548;28;20873;-75
2021/06/01 08:05:09;;;;;;;0.40;0.20;;;17.50;68.30;;;;;;5008480;28;20399;-75
2021/06/01 08:07:35;;;;;;;0.40;0.20;;;18.00;70.10;;;;;;5007181;28;20398;-76
2021/06/01 08:10:04;;;;;;;0.40;0.30;;;17.50;69.10;;;;;;5008760;28;20394;-78
2021/06/01 08:12:30;;;;;;;0.40;0.20;;;17.60;67.00;;;;;;5009487;28;20431;-73
2021/06/01 08:14:57;;;;;;;0.40;0.30;;;17.60;64.60;;;;;;5009048;28;20547;-77
2021/06/01 08:17:23;;;;;;;0.40;0.20;;;17.70;65.50;;;;;;5006595;28;20404;-74
2021/06/01 08:19:52;;;;;;;0.40;0.20;;;17.80;64.40;;;;;;4989387;28;20722;-78
2021/06/01 08:24:43;;;;;;;0.40;0.20;;;18.20;63.90;;;;;;5010665;28;20409;-75
2021/06/01 08:27:09;;;;;;;0.40;0.20;;;18.10;64.50;;;;;;5007299;28;20723;-73
2021/06/01 08:29:35;;;;;;;0.40;0.20;;;18.20;64.60;;;;;;4990327;28;20459;-74
2021/06/01 08:32:01;;;;;;;0.40;0.30;;;18.20;64.40;;;;;;5009254;28;20561;-73
2021/06/01 08:34:27;;;;;;;0.40;0.20;;;18.30;64.20;;;;;;5008429;28;20383;-73
2021/06/01 08:36:54;;;;;;;0.40;0.30;;;18.30;63.40;;;;;;5007034;28;20904;-75
2021/06/01 08:39:24;;;;;;;0.40;0.20;;;18.30;64.30;;;;;;5007147;28;20755;-76
2021/06/01 08:41:50;;;;;;;0.40;0.30;;;18.40;63.50;;;;;;5008814;28;20798;-77
2021/06/01 08:44:17;;;;;;;0.40;0.30;;;18.60;64.30;;;;;;5006360;28;20389;-76
2021/06/01 08:46:43;;;;;;;0.40;0.20;;;18.70;63.10;;;;;;5006752;28;20391;-75
2021/06/01 08:49:13;;;;;;;0.40;0.20;;;18.60;63.70;;;;;;5009637;28;20421;-75
2021/06/01 08:51:40;;;;;;;0.40;0.30;;;18.70;63.50;;;;;;5009326;28;20512;-72
2021/06/01 08:54:05;;;;;;;0.40;0.20;;;18.90;63.00;;;;;;5008218;28;20390;-75
2021/06/01 08:56:31;;;;;;;0.40;0.30;;;18.80;60.80;;;;;;5006163;28;20427;-74
2021/06/01 08:58:57;;;;;;;0.40;0.20;;;19.00;60.90;;;;;;4989893;28;20415;-73
2021/06/01 09:01:23;;;;;;;0.40;0.30;;;19.20;61.10;;;;;;5007955;28;20481;-74
2021/06/01 09:03:55;;;;;;;0.40;0.30;;;19.00;60.00;;;;;;5008526;28;21497;-75
2021/06/01 09:22:01;;;;;;;0.40;0.20;;;19.50;60.50;;;;;;5010451;28;20542;-75
2021/06/01 09:24:27;;;;;;;0.40;0.20;;;19.40;59.30;;;;;;5012093;28;20391;-75
2021/06/01 09:26:58;;;;;;;0.40;0.20;;;19.40;58.90;;;;;;5009560;28;20764;-76
2021/06/01 09:29:26;;;;;;;0.40;0.20;;;19.80;58.90;;;;;;5012028;28;20383;-73
2021/06/01 09:32:09;;;;;;;0.40;0.20;;;19.70;57.80;;;;;;5011274;28;20484;-73
2021/06/01 09:34:44;;;;;;;0.40;0.20;;;19.90;57.60;;;;;;5011590;28;20476;-76
2021/06/01 09:37:36;;;;;;;0.40;0.30;;;19.80;57.60;;;;;;5009698;28;20472;-76
2021/06/01 09:40:08;;;;;;;0.40;0.30;;;19.80;57.80;;;;;;4999148;28;20446;-74
2021/06/01 09:42:36;;;;;;;0.40;0.20;;;19.90;57.20;;;;;;4991937;28;20978;-79
2021/06/01 09:45:15;;;;;;;0.40;0.30;;;19.80;57.90;;;;;;5010913;28;20404;-78
2021/06/01 09:47:46;;;;;;;0.40;0.20;;;20.00;57.60;;;;;;5010440;28;20399;-78
2021/06/01 09:50:22;;;;;;;0.40;0.22;;;20.10;57.20;;;;;;5010747;28;20392;-78
2021/06/01 09:52:52;;;;;;;0.40;0.30;;;20.20;57.30;;;;;;5001005;28;20418;-79
2021/06/01 09:55:38;;;;;;;0.40;0.30;;;20.20;57.80;;;;;;5011454;28;20442;-77
2021/06/01 09:58:06;;;;;;;0.40;0.30;;;20.30;58.50;;;;;;4991866;28;20411;-79
2021/06/01 10:00:34;;;;;;;0.40;0.20;;;20.50;57.40;;;;;;4991105;28;20899;-76
2021/06/01 10:03:03;;;;;;;0.40;0.30;;;20.40;58.10;;;;;;5012873;28;20402;-73
2021/06/01 10:05:37;;;;;;;0.40;0.20;;;20.40;57.80;;;;;;5010900;28;20401;-75
2021/06/01 10:08:25;;;;;;;0.40;0.20;;;20.70;58.30;;;;;;5009683;28;20407;-82
2021/06/01 10:10:58;;;;;;;0.40;0.30;;;20.70;58.40;;;;;;5009602;28;20442;-77
2021/06/01 10:13:27;;;;;;;0.40;0.20;;;20.80;57.10;;;;;;5012289;28;20469;-74
2021/06/01 10:15:55;;;;;;;0.40;0.30;;;20.90;56.70;;;;;;5010651;28;20859;-75
2021/06/01 10:18:23;;;;;;;0.40;0.30;;;20.80;58.20;;;;;;5010249;28;20875;-78
2021/06/01 10:20:50;;;;;;;0.40;0.20;;;20.80;59.20;;;;;;5011533;28;20384;-77
2021/06/01 10:23:26;;;;;;;0.40;0.20;;;20.90;59.40;;;;;;5010090;28;20387;-76
2021/06/01 10:25:52;;;;;;;1.00;0.40;;;21.10;58.70;;;;;;5010054;28;20466;-79
2021/06/01 10:28:41;;;;;;;0.40;0.30;;;21.20;58.80;;;;;;5010109;28;20402;-72
2021/06/01 10:31:10;;;;;;;0.40;0.30;;;21.10;58.00;;;;;;5009633;28;20379;-74
2021/06/01 10:33:40;;;;;;;0.40;0.30;;;21.20;57.60;;;;;;5010397;28;20908;-76
2021/06/01 10:50:28;;;;;;;0.40;0.30;;;21.80;57.10;;;;;;5007751;28;20386;-74
2021/06/01 10:53:28;;;;;;;0.40;0.20;;;21.90;58.20;;;;;;5009958;28;20411;-77
2021/06/01 10:56:01;;;;;;;0.40;0.20;;;21.90;57.90;;;;;;4989491;28;20775;-75
2021/06/01 10:58:32;;;;;;;0.40;0.30;;;22.00;57.00;;;;;;5009536;28;21449;-73
2021/06/01 11:04:25;;;;;;;0.40;0.30;;;22.10;56.70;;;;;;5010070;28;20384;-74
2021/06/01 11:09:34;;;;;;;0.40;0.30;;;22.50;56.30;;;;;;5010299;28;20398;-75
2021/06/01 11:12:25;;;;;;;0.40;0.20;;;22.70;57.30;;;;;;5009974;28;20498;-74
2021/06/01 11:14:57;;;;;;;0.50;0.30;;;23.00;59.40;;;;;;4998807;28;20423;-76
2021/06/01 11:17:41;;;;;;;0.40;0.20;;;23.10;56.70;;;;;;5007969;28;20396;-74
2021/06/01 11:20:24;;;;;;;0.40;0.20;;;23.30;56.30;;;;;;4991739;28;20515;-79
2021/06/01 11:23:09;;;;;;;0.40;0.20;;;23.00;54.60;;;;;;5009291;28;20397;-76
2021/06/01 11:33:52;;;;;;;0.40;0.20;;;24.50;55.90;;;;;;5010622;28;20437;-77
2021/06/01 11:36:19;;;;;;;0.40;0.30;;;24.80;54.60;;;;;;5007030;28;20412;-78
2021/06/01 11:38:57;;;;;;;0.40;0.20;;;24.70;56.30;;;;;;5009883;28;20401;-79
2021/06/01 11:44:26;;;;;;;0.40;0.20;;;26.00;52.50;;;;;;5009190;28;20553;-76
2021/06/01 11:46:57;;;;;;;0.40;0.20;;;27.70;49.10;;;;;;5008404;28;20392;-76
2021/06/01 11:52:08;;;;;;;0.40;0.20;;;26.90;52.20;;;;;;5010362;28;20577;-75
2021/06/01 11:54:33;;;;;;;0.40;0.20;;;27.50;53.00;;;;;;5019782;28;20390;-81
2021/06/01 11:57:12;;;;;;;0.40;0.20;;;28.50;50.80;;;;;;5022219;28;20380;-77
2021/06/01 12:02:38;;;;;;;0.40;0.20;;;28.20;46.60;;;;;;5014283;28;20386;-77
2021/06/01 12:05:11;;;;;;;0.40;0.20;;;28.60;48.30;;;;;;5001281;28;20391;-80
2021/06/01 12:18:40;;;;;;;0.40;0.20;;;27.20;46.60;;;;;;5009688;28;20416;-78
2021/06/01 12:21:21;;;;;;;0.40;0.20;;;27.70;46.90;;;;;;5009980;28;20380;-75
2021/06/01 12:23:57;;;;;;;0.40;0.20;;;28.00;44.60;;;;;;5009777;28;20385;-74
2021/06/01 12:26:29;;;;;;;0.40;0.20;;;27.40;44.30;;;;;;5008728;28;20392;-75
2021/06/01 12:32:02;;;;;;;0.50;0.50;;;26.60;45.90;;;;;;5009280;28;20388;-76
2021/06/01 12:34:49;;;;;;;0.40;0.20;;;27.50;45.50;;;;;;5008804;28;20400;-76
2021/06/01 12:45:47;;;;;;;0.40;0.30;;;26.60;46.90;;;;;;5009416;28;20403;-77
2021/06/01 13:19:49;;;;;;;0.50;0.30;;;26.50;46.00;;;;;;5027968;28;20406;-75
2021/06/01 13:22:27;;;;;;;0.40;0.20;;;26.50;46.50;;;;;;5012652;28;20438;-78
2021/06/01 13:30:56;;;;;;;0.40;0.30;;;26.80;44.70;;;;;;5019620;28;20441;-76
2021/06/01 13:38:43;;;;;;;0.40;0.20;;;27.10;44.70;;;;;;5025222;28;20392;-73
2021/06/01 13:47:07;;;;;;;0.40;0.30;;;26.20;45.40;;;;;;5033513;28;20518;-72
2021/06/01 13:49:38;;;;;;;0.40;0.20;;;26.50;46.50;;;;;;5032499;28;20801;-72
2021/06/01 13:52:31;;;;;;;0.40;0.20;;;26.30;44.50;;;;;;5033180;28;20479;-73
2021/06/01 14:00:22;;;;;;;0.40;0.30;;;27.00;44.30;;;;;;5033271;28;20409;-72
2021/06/01 14:21:10;;;;;;;0.40;0.20;;;27.10;43.30;;;;;;5013046;28;20439;-72
2021/06/01 15:31:53;;;;;;;0.40;0.30;;;27.60;41.50;;;;;;5011680;28;20389;-74
2021/06/01 16:29:34;;;;;;;0.40;0.20;;;27.80;38.60;;;;;;4997095;28;20399;-74
2021/06/01 17:04:49;;;;;;;0.40;0.20;;;27.90;36.90;;;;;;5034024;28;20812;-74
2021/06/01 17:13:15;;;;;;;0.40;0.30;;;27.50;41.60;;;;;;5034696;28;20394;-75
2021/06/01 17:15:41;;;;;;;0.40;0.30;;;27.60;41.20;;;;;;5019403;28;20424;-75
2021/06/01 17:36:33;;;;;;;0.40;0.30;;;28.50;38.20;;;;;;5010727;28;20964;-77
2021/06/01 17:38:59;;;;;;;0.40;0.30;;;27.80;39.20;;;;;;5011042;28;20381;-76
2021/06/01 17:41:32;;;;;;;0.40;0.20;;;28.20;37.90;;;;;;5010057;28;20396;-76
2021/06/01 17:44:03;;;;;;;0.40;0.30;;;27.00;40.90;;;;;;5011363;28;20411;-74
2021/06/01 17:46:32;;;;;;;0.40;0.30;;;26.50;42.30;;;;;;5015043;28;20389;-85
2021/06/01 17:49:00;;;;;;;0.40;0.20;;;26.10;41.30;;;;;;5011197;28;20447;-75
2021/06/01 17:51:29;;;;;;;0.50;0.28;;;25.80;41.80;;;;;;5011198;28;20832;-75
2021/06/01 17:53:59;;;;;;;0.40;0.30;;;25.60;43.40;;;;;;5011041;28;20380;-79
2021/06/01 17:56:27;;;;;;;0.40;0.30;;;25.30;45.10;;;;;;5011447;28;20417;-75
2021/06/01 17:58:54;;;;;;;0.40;0.20;;;25.00;44.60;;;;;;5002183;28;20409;-75
2021/06/01 18:01:22;;;;;;;0.40;0.20;;;25.10;43.80;;;;;;5019927;28;20399;-76
2021/06/01 18:06:18;;;;;;;0.40;0.30;;;25.10;42.20;;;;;;5017718;28;20404;-75
2021/06/01 19:21:31;;;;;;;0.40;0.30;;;20.70;63.20;;;;;;5008840;28;20396;-76
2021/06/01 19:50:27;;;;;;;0.40;0.20;;;19.50;73.00;;;;;;5012083;28;20748;-74
2021/06/01 19:52:55;;;;;;;0.40;0.30;;;19.40;72.50;;;;;;5014034;28;20523;-76
2021/06/01 19:55:23;;;;;;;0.40;0.30;;;19.30;72.50;;;;;;5016638;28;20503;-76
2021/06/01 19:57:50;;;;;;;0.40;0.20;;;19.30;72.80;;;;;;5016852;28;20884;-76
2021/06/01 20:00:16;;;;;;;0.40;0.30;;;19.10;72.60;;;;;;5017298;28;20393;-76
2021/06/01 20:02:42;;;;;;;0.40;0.30;;;19.10;74.30;;;;;;5014306;28;20394;-76
2021/06/01 20:05:11;;;;;;;0.40;0.30;;;18.90;74.70;;;;;;5023923;28;20387;-77
2021/06/01 20:07:37;;;;;;;0.40;0.20;;;18.90;76.90;;;;;;5014178;28;20395;-79
2021/06/01 20:10:04;;;;;;;0.40;0.20;;;18.90;77.20;;;;;;5003235;28;20775;-75
2021/06/01 20:12:31;;;;;;;0.40;0.30;;;18.90;78.50;;;;;;5016788;28;20459;-75
2021/06/01 20:14:57;;;;;;;0.40;0.30;;;18.90;78.40;;;;;;5018512;28;20706;-78
2021/06/01 20:17:39;;;;;;;0.40;0.20;;;18.80;77.90;;;;;;5018228;28;20435;-75
2021/06/01 20:20:27;;;;;;;0.40;0.20;;;18.70;78.90;;;;;;5008119;28;20484;-75
2021/06/01 20:22:59;;;;;;;0.40;0.20;;;18.70;81.90;;;;;;5006714;28;20400;-76
2021/06/01 20:25:25;;;;;;;0.40;0.30;;;18.60;78.80;;;;;;5007982;28;20427;-75